Time;durP1;ratioP1;P1;durP2;ratioP2;P2;SDS_P1;SDS_P2;PMS_P1;PMS_P2;Temp;Humidity;BMP_temperature;BMP_pressure;BME280_temperature;BME280_humidity;BME280_pressure;Samples;Min_cycle;Max_cycle;Signal;HPM_P1;HPM_P2
2021/11/06 00:00:19;;;;;;;18.33;14.93;;;;;;;9.80;81.36;100730.47;5034512;28;20396;-86
2021/11/06 00:02:46;;;;;;;21.30;14.05;;;;;;;9.70;81.81;100729.13;5035328;28;20048;-86
2021/11/06 00:05:13;;;;;;;17.00;14.20;;;;;;;9.69;81.90;100730.00;5034942;28;20049;-86
2021/11/06 00:07:40;;;;;;;18.95;14.80;;;;;;;9.66;81.63;100736.19;5035120;28;20581;-86
2021/11/06 00:10:08;;;;;;;19.70;15.32;;;;;;;9.78;81.28;100728.81;5033038;28;20069;-86
2021/11/06 00:12:37;;;;;;;18.15;14.48;;;;;;;9.69;81.51;100728.28;5034891;28;20099;-86
2021/11/06 00:15:05;;;;;;;18.42;13.73;;;;;;;9.72;80.69;100724.72;5033875;28;20505;-86
2021/11/06 00:17:33;;;;;;;18.05;15.27;;;;;;;9.74;80.65;100725.47;5036716;28;20125;-86
2021/11/06 00:19:59;;;;;;;17.08;14.00;;;;;;;9.69;80.96;100727.41;5043343;28;20083;-86
2021/11/06 00:22:27;;;;;;;15.90;12.70;;;;;;;9.82;79.94;100727.81;5034110;28;20045;-86
2021/11/06 00:24:54;;;;;;;16.33;12.43;;;;;;;9.92;79.62;100732.59;5045775;28;20045;-87
2021/11/06 00:27:20;;;;;;;17.70;13.15;;;;;;;9.79;79.64;100733.97;5054311;28;20051;-88
2021/11/06 00:29:47;;;;;;;18.83;13.77;;;;;;;9.81;79.96;100720.91;5053639;28;20083;-87
2021/11/06 00:32:14;;;;;;;16.90;13.63;;;;;;;9.76;80.32;100725.44;5054046;28;20115;-86
2021/11/06 00:34:41;;;;;;;16.75;13.38;;;;;;;9.86;80.89;100718.97;5053958;28;20411;-87
2021/11/06 00:37:07;;;;;;;16.38;13.48;;;;;;;9.77;82.10;100719.31;5053269;28;20052;-86
2021/11/06 00:39:34;;;;;;;17.00;12.02;;;;;;;9.69;82.64;100722.22;5036343;28;20541;-86
2021/11/06 00:42:01;;;;;;;18.35;12.98;;;;;;;9.72;82.41;100722.09;5033844;28;20148;-85
2021/11/06 00:44:28;;;;;;;14.48;12.40;;;;;;;9.80;82.94;100730.47;5044035;28;20565;-87
2021/11/06 00:46:55;;;;;;;14.15;11.70;;;;;;;9.68;82.75;100725.72;5034637;28;20069;-86
2021/11/06 00:49:21;;;;;;;16.27;11.90;;;;;;;9.74;82.57;100729.84;5032568;28;20045;-85
2021/11/06 00:51:48;;;;;;;14.57;12.40;;;;;;;9.64;82.93;100729.34;5042266;28;20074;-87
2021/11/06 00:54:15;;;;;;;15.98;13.10;;;;;;;9.75;82.64;100731.53;5053481;28;20036;-87
2021/11/06 00:56:42;;;;;;;17.98;12.55;;;;;;;9.60;82.67;100727.78;5047943;28;20041;-87
2021/11/06 00:59:10;;;;;;;22.77;13.32;;;;;;;9.62;83.51;100739.81;5041263;28;20037;-88
2021/11/06 01:01:37;;;;;;;18.00;13.45;;;;;;;9.76;83.09;100741.06;5053245;28;20037;-87
2021/11/06 01:04:07;;;;;;;18.38;13.10;;;;;;;9.59;83.78;100747.75;5053678;28;20049;-87
2021/11/06 01:06:34;;;;;;;15.57;12.15;;;;;;;9.71;83.00;100746.44;5053063;28;20044;-87
2021/11/06 01:09:00;;;;;;;15.80;13.98;;;;;;;9.84;83.17;100747.66;5039494;28;20570;-88
2021/11/06 01:11:27;;;;;;;19.30;13.30;;;;;;;9.78;82.88;100749.66;5040602;28;20115;-88
2021/11/06 01:13:54;;;;;;;15.95;12.10;;;;;;;9.76;82.99;100749.72;5053044;28;20111;-88
2021/11/06 01:16:21;;;;;;;18.30;13.38;;;;;;;9.62;83.82;100744.19;5052752;28;20114;-86
2021/11/06 01:18:48;;;;;;;17.88;12.43;;;;;;;9.66;82.64;100751.81;5052632;28;20441;-85
2021/11/06 01:21:15;;;;;;;17.63;13.15;;;;;;;9.71;83.04;100756.84;5053252;28;20488;-85
2021/11/06 01:23:41;;;;;;;16.40;12.65;;;;;;;9.51;83.19;100749.78;5052564;28;20448;-85
2021/11/06 01:26:08;;;;;;;13.85;11.55;;;;;;;9.54;83.06;100752.28;5052898;28;20048;-85
2021/11/06 01:28:35;;;;;;;15.63;11.77;;;;;;;9.59;83.25;100759.94;5052332;28;20049;-88
2021/11/06 01:31:02;;;;;;;18.60;12.35;;;;;;;9.70;81.80;100765.59;5052178;28;20053;-88
2021/11/06 01:33:29;;;;;;;16.38;13.60;;;;;;;9.61;82.18;100761.56;5052498;28;20098;-89
2021/11/06 01:35:56;;;;;;;15.90;11.90;;;;;;;9.73;81.50;100756.78;5051856;28;20454;-87
2021/11/06 01:38:23;;;;;;;14.30;11.10;;;;;;;9.66;83.02;100764.00;5042219;28;20049;-87
2021/11/06 01:40:51;;;;;;;15.60;11.82;;;;;;;9.58;83.85;100758.22;5052040;28;20064;-87
2021/11/06 01:43:17;;;;;;;16.52;12.20;;;;;;;9.58;84.92;100760.81;5036030;28;20049;-87
2021/11/06 01:45:44;;;;;;;14.45;11.35;;;;;;;9.82;84.80;100759.06;5031182;28;20041;-86
2021/11/06 01:48:11;;;;;;;15.20;11.70;;;;;;;9.74;85.00;100756.72;5032641;28;20053;-87
2021/11/06 01:50:38;;;;;;;13.15;11.43;;;;;;;9.71;87.27;100757.69;5048058;28;20094;-87
2021/11/06 01:53:05;;;;;;;13.40;10.52;;;;;;;9.57;89.52;100764.34;5052345;28;20087;-87
2021/11/06 01:55:31;;;;;;;11.88;10.68;;;;;;;9.54;91.38;100762.72;5052541;28;20045;-86
2021/11/06 01:57:58;;;;;;;13.55;10.77;;;;;;;9.57;91.55;100761.72;5051883;28;20037;-88
2021/11/06 02:00:27;;;;;;;14.07;11.25;;;;;;;9.57;90.54;100759.97;5039906;28;20095;-88
2021/11/06 02:02:54;;;;;;;14.50;10.73;;;;;;;9.63;88.90;100761.50;5052091;28;20055;-88
2021/11/06 02:05:22;;;;;;;14.07;11.13;;;;;;;9.80;89.99;100761.72;5052185;28;20055;-87
2021/11/06 02:07:49;;;;;;;12.45;9.68;;;;;;;9.55;93.75;100760.94;5051558;28;20053;-87
2021/11/06 02:10:16;;;;;;;14.70;10.75;;;;;;;9.60;93.82;100757.25;5048229;28;20064;-87
2021/11/06 02:12:44;;;;;;;12.80;10.60;;;;;;;9.44;92.69;100754.38;5050868;28;20041;-88
2021/11/06 02:15:14;;;;;;;11.55;10.05;;;;;;;9.49;90.84;100769.00;5052168;28;20037;-87
2021/11/06 02:17:42;;;;;;;13.10;9.38;;;;;;;9.58;91.08;100758.22;5021474;28;20045;-87
2021/11/06 02:20:11;;;;;;;11.40;9.32;;;;;;;9.55;92.87;100760.94;5032110;28;20045;-87
2021/11/06 02:22:38;;;;;;;13.98;9.70;;;;;;;9.70;91.25;100758.63;5044103;28;20438;-87
2021/11/06 02:25:05;;;;;;;12.57;8.93;;;;;;;9.54;91.25;100764.47;5051819;28;20114;-87
2021/11/06 02:27:32;;;;;;;12.45;9.23;;;;;;;9.64;87.34;100760.56;5050648;28;20072;-89
2021/11/06 02:30:00;;;;;;;11.02;9.70;;;;;;;9.61;84.88;100763.31;5048847;28;20466;-90
2021/11/06 02:32:26;;;;;;;12.30;9.45;;;;;;;9.57;85.33;100765.19;5052158;28;20052;-89
2021/11/06 02:34:53;;;;;;;12.77;8.60;;;;;;;9.52;88.05;100763.66;5051738;28;20113;-89
2021/11/06 02:37:20;;;;;;;12.43;8.85;;;;;;;9.57;87.51;100767.78;5034174;28;20053;-89
2021/11/06 02:39:47;;;;;;;10.82;8.80;;;;;;;9.39;88.30;100764.13;5051749;28;20041;-88
2021/11/06 02:42:14;;;;;;;10.88;7.80;;;;;;;9.49;88.01;100763.78;5046460;28;20556;-90
2021/11/06 02:44:41;;;;;;;11.70;9.00;;;;;;;9.44;87.74;100767.41;5049969;28;20040;-89
2021/11/06 02:47:08;;;;;;;10.32;9.07;;;;;;;9.40;86.40;100760.59;5047256;28;20051;-89
2021/11/06 02:49:35;;;;;;;12.48;8.43;;;;;;;9.39;87.22;100774.53;5056045;28;20033;-88
2021/11/06 02:52:02;;;;;;;11.10;8.68;;;;;;;9.41;87.12;100767.50;5056040;28;20045;-88
2021/11/06 02:54:30;;;;;;;13.50;9.45;;;;;;;9.45;86.85;100768.25;5052328;28;20426;-87
2021/11/06 02:56:57;;;;;;;13.05;8.80;;;;;;;9.39;86.18;100766.72;5053976;28;20392;-87
2021/11/06 02:59:24;;;;;;;9.95;8.35;;;;;;;9.36;85.91;100769.41;5048524;28;20535;-88
2021/11/06 03:01:51;;;;;;;13.60;8.98;;;;;;;9.47;84.39;100773.38;5037067;28;20495;-86
2021/11/06 03:04:18;;;;;;;11.52;8.38;;;;;;;9.46;83.80;100775.13;5043175;28;20041;-85
2021/11/06 03:06:45;;;;;;;9.98;8.18;;;;;;;9.37;83.82;100772.88;5049449;28;20029;-85
2021/11/06 03:09:12;;;;;;;9.60;7.72;;;;;;;9.47;82.58;100779.44;5056574;28;20081;-86
2021/11/06 03:11:40;;;;;;;10.45;8.75;;;;;;;9.48;82.31;100777.69;5071244;28;20067;-86
2021/11/06 03:14:09;;;;;;;10.70;7.88;;;;;;;9.47;82.52;100779.44;5043624;28;20068;-80
2021/11/06 03:16:38;;;;;;;11.73;7.80;;;;;;;9.38;82.73;100783.25;5054830;28;20079;-79
2021/11/06 03:19:05;;;;;;;8.45;7.32;;;;;;;9.34;83.02;100784.25;5054378;28;20060;-79
2021/11/06 03:21:33;;;;;;;11.40;8.88;;;;;;;9.37;82.66;100791.94;5053479;28;20442;-79
2021/11/06 03:24:00;;;;;;;9.93;8.95;;;;;;;9.40;83.37;100796.19;5041894;28;20048;-79
2021/11/06 03:26:27;;;;;;;8.35;7.22;;;;;;;9.45;83.26;100799.47;5036210;28;20041;-80
2021/11/06 03:28:53;;;;;;;9.23;7.45;;;;;;;9.42;82.38;100803.03;5035190;28;20045;-79
2021/11/06 03:31:20;;;;;;;9.73;7.50;;;;;;;9.55;80.59;100805.19;5034769;28;20119;-78
2021/11/06 03:33:47;;;;;;;15.02;8.18;;;;;;;9.54;80.42;100808.72;5034897;28;20403;-80
2021/11/06 03:36:14;;;;;;;13.30;8.52;;;;;;;9.49;80.46;100806.28;5034687;28;20033;-79
2021/11/06 03:38:41;;;;;;;10.57;8.07;;;;;;;9.47;80.45;100813.25;5039626;28;20041;-79
2021/11/06 03:41:08;;;;;;;14.70;10.32;;;;;;;9.44;80.44;100809.03;5053174;28;20037;-80
2021/11/06 03:43:36;;;;;;;10.23;8.65;;;;;;;9.44;80.57;100811.63;5043658;28;20087;-79
2021/11/06 03:46:03;;;;;;;9.80;8.77;;;;;;;9.50;80.57;100814.91;5049227;28;20045;-80
2021/11/06 03:48:30;;;;;;;13.02;9.02;;;;;;;9.44;81.27;100816.84;5054600;28;20098;-82
2021/11/06 03:50:57;;;;;;;10.38;8.43;;;;;;;9.43;81.42;100819.50;5054067;28;20446;-81
2021/11/06 03:53:23;;;;;;;15.57;8.43;;;;;;;9.36;81.72;100824.06;5045943;28;20446;-81
2021/11/06 03:55:50;;;;;;;11.45;9.13;;;;;;;9.43;81.36;100820.34;5053398;28;20045;-82
2021/11/06 03:58:17;;;;;;;11.15;8.90;;;;;;;9.54;81.52;100826.94;5054072;28;20064;-82
2021/11/06 04:00:44;;;;;;;11.30;8.65;;;;;;;9.37;83.00;100825.75;5046203;28;20091;-82
2021/11/06 04:03:11;;;;;;;12.60;8.70;;;;;;;9.24;83.51;100832.31;5051635;28;20446;-81
2021/11/06 04:05:37;;;;;;;11.88;8.52;;;;;;;9.23;85.52;100833.22;5053054;28;20036;-81
2021/11/06 04:08:04;;;;;;;11.80;9.10;;;;;;;9.33;85.42;100838.94;5053719;28;20527;-81
2021/11/06 04:10:31;;;;;;;12.18;9.25;;;;;;;9.10;87.46;100834.53;5054202;28;20045;-81
2021/11/06 04:12:58;;;;;;;12.60;9.60;;;;;;;9.23;87.75;100841.03;5041229;28;20563;-81
2021/11/06 04:15:25;;;;;;;15.20;10.05;;;;;;;9.14;87.84;100838.72;5034197;28;20041;-81
2021/11/06 04:17:51;;;;;;;11.02;9.10;;;;;;;8.96;88.57;100834.16;5047747;28;20518;-81
2021/11/06 04:20:18;;;;;;;10.65;9.45;;;;;;;9.08;88.34;100836.34;5054015;28;20095;-81
2021/11/06 04:22:45;;;;;;;10.93;9.02;;;;;;;9.14;88.30;100833.53;5054003;28;20484;-81
2021/11/06 04:25:12;;;;;;;14.02;9.93;;;;;;;9.10;88.67;100834.53;5053172;28;20044;-82
2021/11/06 04:27:39;;;;;;;11.48;8.95;;;;;;;9.07;89.25;100832.06;5049588;28;20044;-81
2021/11/06 04:30:06;;;;;;;10.52;8.82;;;;;;;9.26;89.53;100837.44;5033833;28;20087;-82
2021/11/06 04:32:33;;;;;;;12.23;8.68;;;;;;;9.07;88.14;100842.44;5037833;28;20096;-81
2021/11/06 04:35:03;;;;;;;11.05;7.97;;;;;;;9.11;88.11;100844.06;5033587;28;20472;-82
2021/11/06 04:37:31;;;;;;;13.85;8.98;;;;;;;9.07;88.23;100838.09;5034471;28;20455;-83
2021/11/06 04:39:57;;;;;;;10.48;8.95;;;;;;;9.17;88.08;100841.25;5025997;28;20383;-83
2021/11/06 04:42:24;;;;;;;10.65;9.02;;;;;;;9.06;87.71;100835.56;5026393;28;20095;-82
2021/11/06 04:44:51;;;;;;;11.10;8.95;;;;;;;9.15;87.09;100840.41;5033493;28;20404;-83
2021/11/06 04:47:18;;;;;;;11.20;8.20;;;;;;;9.08;87.50;100839.78;5044096;28;20055;-83
2021/11/06 04:49:44;;;;;;;9.50;7.95;;;;;;;9.06;87.79;100846.81;5053460;28;20041;-83
2021/11/06 04:52:11;;;;;;;9.88;8.15;;;;;;;8.87;88.66;100845.72;5044042;28;20045;-83
2021/11/06 04:54:38;;;;;;;10.15;8.70;;;;;;;8.90;89.22;100841.28;5053762;28;20037;-83
2021/11/06 04:57:05;;;;;;;9.02;7.57;;;;;;;8.93;88.38;100846.34;5039546;28;20446;-83
2021/11/06 04:59:31;;;;;;;9.48;8.55;;;;;;;8.94;88.79;100852.41;5033821;28;20076;-83
2021/11/06 05:02:00;;;;;;;11.52;8.85;;;;;;;8.78;88.89;100857.25;5033249;28;20052;-83
2021/11/06 05:04:28;;;;;;;9.48;7.85;;;;;;;8.90;87.84;100856.88;5032965;28;20436;-82
2021/11/06 05:06:55;;;;;;;11.30;8.45;;;;;;;8.88;87.49;100848.25;5032464;28;20044;-83
2021/11/06 05:09:22;;;;;;;9.05;7.88;;;;;;;8.79;87.32;100848.59;5032907;28;20111;-81
2021/11/06 05:11:49;;;;;;;9.05;8.15;;;;;;;8.91;87.03;100848.16;5033264;28;20451;-83
2021/11/06 05:14:16;;;;;;;9.38;8.02;;;;;;;8.97;86.38;100851.47;5047743;28;20475;-83
2021/11/06 05:16:43;;;;;;;9.23;7.65;;;;;;;9.03;86.05;100853.84;5052473;28;20495;-81
2021/11/06 05:19:10;;;;;;;13.57;9.95;;;;;;;8.96;86.18;100850.63;5052756;28;20455;-82
2021/11/06 05:21:37;;;;;;;10.70;7.82;;;;;;;8.97;86.15;100856.66;5052797;28;20483;-83
2021/11/06 05:24:05;;;;;;;10.60;7.88;;;;;;;9.13;85.18;100857.84;5052826;28;20041;-82
2021/11/06 05:26:34;;;;;;;9.57;7.25;;;;;;;9.08;85.26;100859.75;5013222;28;20492;-82
2021/11/06 05:29:04;;;;;;;8.43;7.47;;;;;;;8.97;85.50;100873.13;5012700;28;20519;-84
2021/11/06 05:31:32;;;;;;;7.70;6.80;;;;;;;9.12;84.30;100867.41;5013222;28;20050;-82
2021/11/06 05:34:00;;;;;;;11.00;8.88;;;;;;;9.14;83.90;100880.34;5012814;28;20543;-82
2021/11/06 05:36:27;;;;;;;11.07;8.88;;;;;;;9.09;84.20;100870.09;5012817;28;20046;-82
2021/11/06 05:38:55;;;;;;;12.40;9.35;;;;;;;9.21;84.00;100870.56;5037757;28;20037;-81
2021/11/06 05:41:22;;;;;;;10.73;9.00;;;;;;;9.24;83.68;100873.94;5052714;28;20063;-79
2021/11/06 05:43:49;;;;;;;7.80;7.00;;;;;;;9.12;83.79;100872.59;5052072;28;20040;-80
2021/11/06 05:46:16;;;;;;;11.98;9.27;;;;;;;9.09;84.05;100877.91;5052389;28;20051;-83
2021/11/06 05:48:43;;;;;;;10.80;8.88;;;;;;;8.98;84.50;100882.63;5033935;28;20057;-83
2021/11/06 05:51:13;;;;;;;18.48;9.45;;;;;;;9.07;84.28;100884.06;5032503;28;20042;-83
2021/11/06 05:53:40;;;;;;;11.75;8.43;;;;;;;9.03;84.65;100883.31;5032771;28;20095;-83
2021/11/06 05:56:08;;;;;;;10.52;8.13;;;;;;;8.95;86.13;100890.53;5037910;28;20025;-82
2021/11/06 05:58:35;;;;;;;8.73;7.20;;;;;;;8.93;85.13;100894.91;5056374;28;20026;-81
2021/11/06 06:01:03;;;;;;;10.40;7.10;;;;;;;9.04;85.39;100899.75;5061935;28;20032;-82
2021/11/06 06:03:32;;;;;;;9.02;7.18;;;;;;;8.95;85.17;100900.94;5057182;28;20041;-82
2021/11/06 06:05:59;;;;;;;9.85;7.07;;;;;;;9.01;84.40;100905.94;5038750;28;20504;-87
2021/11/06 06:08:27;;;;;;;9.73;7.90;;;;;;;9.05;84.45;100901.47;5051966;28;20045;-84
2021/11/06 06:10:53;;;;;;;11.05;7.43;;;;;;;9.10;84.32;100917.75;5051345;28;20356;-83
2021/11/06 06:13:20;;;;;;;8.63;7.68;;;;;;;9.10;85.06;100917.75;5033448;28;20061;-85
2021/11/06 06:15:47;;;;;;;10.80;8.68;;;;;;;9.13;84.77;100917.66;5047602;28;20541;-85
2021/11/06 06:18:14;;;;;;;10.38;7.80;;;;;;;9.10;84.86;100921.22;5051149;28;20376;-84
2021/11/06 06:20:41;;;;;;;11.52;7.88;;;;;;;9.07;84.77;100920.47;5051714;28;20122;-83
2021/11/06 06:23:08;;;;;;;7.63;6.63;;;;;;;9.10;85.45;100933.38;5035696;28;20137;-89
2021/11/06 06:25:34;;;;;;;10.90;7.82;;;;;;;8.96;86.03;100923.44;5047847;28;20099;-82
2021/11/06 06:28:03;;;;;;;9.63;7.85;;;;;;;8.98;85.60;100925.97;5052172;28;20045;-81
2021/11/06 06:30:30;;;;;;;11.30;8.80;;;;;;;9.04;84.49;100933.56;5046142;28;20484;-85
2021/11/06 06:32:57;;;;;;;9.95;7.55;;;;;;;9.13;83.61;100936.72;5047744;28;20052;-85
2021/11/06 06:35:24;;;;;;;11.13;8.02;;;;;;;9.05;84.83;100943.91;5050286;28;20151;-86
2021/11/06 06:38:00;;;;;;;10.00;7.18;;;;;;;9.14;84.89;100950.56;5050497;28;20454;-84
2021/11/06 06:40:27;;;;;;;9.77;7.72;;;;;;;9.19;84.48;100941.72;5021355;28;20128;-84
2021/11/06 06:42:55;;;;;;;9.50;8.07;;;;;;;9.14;84.35;100947.97;5030901;28;20060;-85
2021/11/06 06:45:22;;;;;;;9.38;8.30;;;;;;;9.20;83.50;100952.97;5027977;28;20052;-84
2021/11/06 06:47:49;;;;;;;12.18;8.15;;;;;;;9.10;84.08;100956.78;5029413;28;20124;-84
2021/11/06 06:50:17;;;;;;;11.73;8.10;;;;;;;9.18;83.91;100967.78;5029357;28;20046;-84
2021/11/06 06:52:44;;;;;;;11.43;7.97;;;;;;;9.10;83.28;100964.56;5024319;28;20045;-83
2021/11/06 06:55:11;;;;;;;9.30;6.90;;;;;;;9.18;82.39;100960.00;5026647;28;20099;-82
2021/11/06 06:57:38;;;;;;;8.48;7.57;;;;;;;9.20;82.35;100973.78;5027366;28;20511;-83
2021/11/06 07:00:08;;;;;;;12.82;9.43;;;;;;;9.18;82.23;100976.44;5020223;28;20049;-82
2021/11/06 07:02:35;;;;;;;10.05;8.45;;;;;;;9.15;81.61;100967.88;5027574;28;20500;-83
2021/11/06 07:05:02;;;;;;;10.50;7.75;;;;;;;9.18;82.73;100968.63;5028941;28;20041;-85
2021/11/06 07:07:29;;;;;;;8.55;7.13;;;;;;;9.40;80.14;100973.97;5026877;28;20099;-86
2021/11/06 07:09:56;;;;;;;13.23;8.32;;;;;;;9.44;79.78;100977.34;5021999;28;20096;-85
2021/11/06 07:12:26;;;;;;;12.32;8.52;;;;;;;9.36;79.29;100971.53;5037150;28;20095;-85
2021/11/06 07:14:53;;;;;;;7.78;6.97;;;;;;;9.32;78.76;100973.41;5024605;28;20045;-86
2021/11/06 07:17:20;;;;;;;9.55;7.65;;;;;;;9.43;78.80;100979.09;5023956;28;20046;-88
2021/11/06 07:19:48;;;;;;;16.00;9.30;;;;;;;9.43;78.87;100966.09;5014411;28;20131;-81
2021/11/06 07:22:15;;;;;;;8.23;7.43;;;;;;;9.52;78.45;100977.06;5015297;28;20060;-82
2021/11/06 07:24:42;;;;;;;10.90;7.22;;;;;;;9.55;77.68;100974.38;5016686;28;20049;-82
2021/11/06 07:27:09;;;;;;;8.88;7.13;;;;;;;9.56;76.11;100976.91;5016150;28;20137;-80
2021/11/06 07:29:37;;;;;;;9.00;7.05;;;;;;;9.49;77.09;100983.25;5013305;28;20087;-79
2021/11/06 07:32:04;;;;;;;11.23;7.78;;;;;;;9.56;78.30;100982.13;5015787;28;20056;-81
2021/11/06 07:34:31;;;;;;;9.27;6.68;;;;;;;9.63;79.97;100977.53;5018671;28;20480;-80
2021/11/06 07:36:58;;;;;;;8.65;6.53;;;;;;;9.57;79.63;100977.75;5016491;28;20046;-83
2021/11/06 07:39:26;;;;;;;11.82;8.18;;;;;;;9.71;79.80;100980.75;5015621;28;20412;-82
2021/11/06 07:41:56;;;;;;;11.15;7.50;;;;;;;9.73;80.06;100985.91;5016705;28;20120;-83
2021/11/06 07:44:23;;;;;;;10.05;7.32;;;;;;;9.80;79.96;100997.78;5017014;28;20357;-82
2021/11/06 07:46:51;;;;;;;12.20;8.05;;;;;;;9.69;79.75;100995.56;5017276;28;20038;-83
2021/11/06 07:49:17;;;;;;;9.02;7.10;;;;;;;9.46;81.30;100991.13;5018829;28;20447;-82
2021/11/06 07:51:45;;;;;;;12.93;9.27;;;;;;;9.51;81.65;100996.19;5021070;28;20381;-82
2021/11/06 07:54:12;;;;;;;9.75;8.40;;;;;;;9.50;82.60;100994.50;5023412;28;20124;-82
2021/11/06 07:56:40;;;;;;;13.68;8.25;;;;;;;9.98;82.07;100994.56;5020022;28;20037;-87
2021/11/06 07:59:07;;;;;;;11.32;9.35;;;;;;;9.76;81.30;100994.47;5022486;28;20120;-89
2021/11/06 08:01:36;;;;;;;11.90;8.52;;;;;;;9.90;80.61;101005.22;5019896;28;20046;-93
2021/11/06 08:04:03;;;;;;;10.38;7.95;;;;;;;9.96;80.11;101002.44;5024521;28;20033;-91
2021/11/06 08:06:31;;;;;;;8.63;7.72;;;;;;;9.92;81.01;101006.03;5026888;28;20053;-95
2021/11/06 08:08:58;;;;;;;8.93;7.30;;;;;;;9.67;81.80;101006.03;5034688;28;20092;-91
2021/11/06 08:11:26;;;;;;;10.63;7.55;;;;;;;9.61;82.24;100993.22;5035433;28;20042;-89
2021/11/06 08:13:52;;;;;;;11.75;7.50;;;;;;;10.00;82.07;101010.13;5032707;28;20503;-88
2021/11/06 08:16:20;;;;;;;9.65;7.90;;;;;;;9.74;82.55;101006.66;5019201;28;20045;-92
2021/11/06 08:18:47;;;;;;;10.18;8.10;;;;;;;9.51;82.99;101010.06;5026562;28;20034;-89
2021/11/06 08:21:14;;;;;;;14.07;8.23;;;;;;;9.69;83.50;101016.38;5023843;28;20042;-91
2021/11/06 08:23:42;;;;;;;10.40;7.25;;;;;;;9.88;80.22;101012.25;5019847;28;20092;-90
2021/11/06 08:26:10;;;;;;;11.07;9.32;;;;;;;9.83;80.49;101008.97;5034162;28;20052;-87
2021/11/06 08:28:36;;;;;;;10.80;7.57;;;;;;;9.76;80.61;101006.63;5028836;28;20037;-85
2021/11/06 08:31:03;;;;;;;10.70;8.52;;;;;;;10.11;79.26;101001.00;5018411;28;20053;-83
2021/11/06 08:33:32;;;;;;;10.00;8.23;;;;;;;10.30;78.52;101010.81;5018691;28;20095;-85
2021/11/06 08:35:59;;;;;;;8.85;7.55;;;;;;;9.94;78.17;100998.16;5019090;28;20053;-87
2021/11/06 08:38:32;;;;;;;11.38;8.40;;;;;;;10.06;78.46;100992.50;5020685;28;20088;-89
2021/11/06 08:40:59;;;;;;;10.75;8.00;;;;;;;10.30;77.13;100990.81;5024201;28;20030;-85
2021/11/06 08:43:26;;;;;;;9.70;8.13;;;;;;;10.51;75.97;100993.53;5024662;28;20051;-88
2021/11/06 08:45:56;;;;;;;9.82;8.32;;;;;;;10.55;75.59;101001.19;5016558;28;20046;-89
2021/11/06 09:32:45;;;;;;;8.73;7.55;;;;;;;12.54;61.31;101000.69;5133429;27;20468;-83
2021/11/06 09:35:12;;;;;;;10.45;8.30;;;;;;;12.72;62.30;101004.19;5121053;28;20035;-82
2021/11/06 09:37:39;;;;;;;11.57;8.65;;;;;;;12.07;64.27;101012.34;5123199;27;20047;-83
2021/11/06 09:40:09;;;;;;;7.72;6.68;;;;;;;11.77;64.30;101014.50;5121768;27;20039;-85
2021/11/06 09:42:39;;;;;;;10.02;7.82;;;;;;;12.16;61.96;101015.50;5125110;27;20031;-81
2021/11/06 09:45:07;;;;;;;7.88;5.60;;;;;;;12.23;61.56;101015.13;5125899;28;20035;-83
2021/11/06 09:47:34;;;;;;;6.55;5.45;;;;;;;11.96;59.98;101011.97;5125109;28;20096;-82
2021/11/06 09:50:02;;;;;;;10.73;6.40;;;;;;;12.06;59.79;101015.03;5124407;27;20461;-82
2021/11/06 09:52:29;;;;;;;5.95;5.28;;;;;;;11.88;59.61;101014.09;5124254;27;20074;-83
2021/11/06 09:54:56;;;;;;;7.90;4.95;;;;;;;12.40;58.44;101009.13;5122845;27;20103;-84
2021/11/06 09:57:22;;;;;;;7.18;5.60;;;;;;;12.20;60.50;101009.22;5127258;28;20088;-84
2021/11/06 09:59:50;;;;;;;7.75;6.57;;;;;;;11.81;61.18;101017.81;5126097;27;20043;-84
2021/11/06 10:02:17;;;;;;;8.50;5.97;;;;;;;12.02;61.38;101021.31;5120933;27;20047;-83
2021/11/06 10:04:45;;;;;;;6.30;5.78;;;;;;;11.63;60.75;101018.63;5125960;27;20035;-84
2021/11/06 10:07:21;;;;;;;10.35;5.97;;;;;;;11.89;60.73;101021.00;5122080;27;20617;-83
2021/11/06 10:10:05;;;;;;;8.55;5.82;;;;;;;11.92;60.42;101022.63;5118668;28;20043;-84
2021/11/06 10:12:50;;;;;;;8.23;6.93;;;;;;;11.51;62.40;101020.81;5121506;28;20051;-83
2021/11/06 10:15:20;;;;;;;6.53;5.93;;;;;;;12.04;60.30;101012.50;5118835;28;20056;-83
2021/11/06 10:17:48;;;;;;;6.07;5.10;;;;;;;11.89;60.92;101021.00;5122766;28;20477;-86
2021/11/06 10:20:29;;;;;;;6.15;5.20;;;;;;;11.71;60.71;101024.34;5121358;28;20039;-87
2021/11/06 10:22:59;;;;;;;7.07;4.82;;;;;;;12.40;58.43;101019.59;5121716;28;20478;-86
2021/11/06 10:25:30;;;;;;;;;;;;;;;11.71;57.91;101016.50;5125032;27;20035;-86
2021/11/06 10:28:03;;;;;;;9.93;4.95;;;;;;;11.73;57.54;101015.56;5126909;27;20412;-86
2021/11/06 10:30:34;;;;;;;4.85;4.38;;;;;;;11.43;57.38;101017.66;5119444;28;20044;-86
2021/11/06 10:33:16;;;;;;;8.00;4.50;;;;;;;12.76;55.62;101000.53;5128395;27;20443;-84
2021/11/06 10:35:47;;;;;;;6.13;4.22;;;;;;;12.62;55.81;101002.94;5125772;28;20051;-84
2021/11/06 10:38:22;;;;;;;4.78;4.28;;;;;;;12.71;55.10;100999.88;5127124;28;20550;-83
2021/11/06 10:40:55;;;;;;;4.63;4.13;;;;;;;12.75;54.48;101001.44;5125219;27;20043;-85
2021/11/06 10:43:24;;;;;;;8.50;4.50;;;;;;;12.31;54.52;101004.34;5114706;28;20092;-88
2021/11/06 10:45:54;;;;;;;6.03;5.03;;;;;;;12.43;55.07;101001.16;5107300;28;20363;-84
2021/11/06 10:48:25;;;;;;;6.30;4.68;;;;;;;12.82;55.21;100993.22;5109034;28;20497;-83
2021/11/06 10:51:16;;;;;;;7.55;4.45;;;;;;;12.56;55.79;100985.75;5109989;28;20043;-84
2021/11/06 10:53:49;;;;;;;8.05;4.28;;;;;;;13.16;54.50;100980.31;5109259;28;20440;-84
2021/11/06 10:56:27;;;;;;;5.00;4.45;;;;;;;12.59;56.47;100980.41;5110379;28;20040;-85
2021/11/06 10:59:17;;;;;;;5.13;4.38;;;;;;;12.50;56.53;100973.81;5110966;28;20042;-84
2021/11/06 11:01:52;;;;;;;5.93;4.32;;;;;;;12.43;55.76;100976.78;5106042;28;20036;-86
2021/11/06 11:04:21;;;;;;;5.20;4.40;;;;;;;12.86;54.66;100978.25;5109802;28;20043;-85
2021/11/06 11:06:54;;;;;;;5.38;4.60;;;;;;;13.18;55.26;100962.75;5106572;28;20032;-85
2021/11/06 11:09:24;;;;;;;4.50;4.10;;;;;;;12.93;55.72;100963.09;5111471;28;20039;-85
2021/11/06 11:11:53;;;;;;;5.15;4.65;;;;;;;12.90;55.65;100963.25;5111033;28;20040;-89
2021/11/06 11:14:26;;;;;;;5.63;4.85;;;;;;;12.40;57.32;100954.22;5111759;28;20138;-87
2021/11/06 11:16:55;;;;;;;6.30;5.15;;;;;;;11.84;58.59;100949.81;5110574;28;20093;-88
2021/11/06 11:19:33;;;;;;;6.47;5.60;;;;;;;12.07;58.16;100957.47;5110305;28;20497;-88
2021/11/06 11:22:01;;;;;;;12.73;5.32;;;;;;;12.41;57.06;100952.47;5109710;28;20146;-88
2021/11/06 11:24:27;;;;;;;8.30;5.68;;;;;;;12.56;57.31;100954.38;5108459;28;20044;-89
2021/11/06 11:26:56;;;;;;;8.10;5.93;;;;;;;13.02;55.90;100946.94;5108579;28;20046;-89
2021/11/06 11:29:29;;;;;;;6.47;5.32;;;;;;;12.59;57.40;100938.53;5106237;28;20036;-87
2021/11/06 11:31:57;;;;;;;5.95;5.35;;;;;;;11.93;60.01;100946.81;5105846;28;20043;-86
2021/11/06 11:34:24;;;;;;;6.93;6.18;;;;;;;12.07;59.95;100938.34;5110462;28;20096;-85
2021/11/06 11:36:53;;;;;;;6.72;5.82;;;;;;;12.18;59.90;100925.63;5111264;28;20411;-85
2021/11/06 11:39:22;;;;;;;6.78;5.03;;;;;;;12.45;59.24;100928.72;5108460;27;20089;-88
2021/11/06 11:41:49;;;;;;;8.45;5.80;;;;;;;12.51;58.76;100925.81;5110391;28;20046;-94
2021/11/06 11:44:35;;;;;;;6.80;6.10;;;;;;;12.64;58.54;100928.72;5113736;28;20043;-96
2021/11/06 11:47:08;;;;;;;7.05;5.93;;;;;;;12.06;59.69;100924.41;5107258;28;20044;-94
2021/11/06 11:49:40;;;;;;;6.75;5.13;;;;;;;12.73;57.56;100924.78;5111771;28;20055;-95
2021/11/06 11:52:27;;;;;;;10.95;5.25;;;;;;;13.45;55.34;100916.03;5104564;28;20039;-95
2021/11/06 11:55:11;;;;;;;7.90;7.10;;;;;;;13.28;55.77;100906.41;5108911;28;20565;-86
2021/11/06 11:57:40;;;;;;;7.90;5.28;;;;;;;12.47;58.77;100918.22;5110899;28;20485;-94
2021/11/06 12:00:16;;;;;;;6.20;4.90;;;;;;;12.16;59.21;100911.78;5111098;28;20481;-90
2021/11/06 12:03:02;;;;;;;6.65;5.75;;;;;;;12.41;59.06;100903.66;5112759;28;20043;-90
2021/11/06 12:05:36;;;;;;;7.32;4.72;;;;;;;12.83;57.94;100907.72;5100734;28;20040;-90
2021/11/06 12:08:09;;;;;;;6.82;5.28;;;;;;;13.13;57.07;100901.91;5098223;28;20055;-88
2021/11/06 12:10:42;;;;;;;9.50;5.95;;;;;;;13.07;56.97;100896.06;5104021;28;20044;-94
2021/11/06 12:13:28;;;;;;;12.48;5.75;;;;;;;13.20;56.61;100895.44;5102153;28;20044;-93